createdAt,value
2022-11-19T00:01:46.232Z,95997.19
2022-11-19T00:04:12.620Z,96006.19
2022-11-19T00:06:38.985Z,96011.50
2022-11-19T00:09:42.963Z,96002.25
2022-11-19T00:12:31.467Z,96006.34
2022-11-19T00:14:57.864Z,96008.00
2022-11-19T00:17:24.167Z,96003.59
2022-11-19T00:19:50.484Z,96007.31
2022-11-19T00:22:25.854Z,95999.84
2022-11-19T00:24:52.258Z,96000.69
2022-11-19T00:27:25.466Z,96009.38
2022-11-19T00:29:51.861Z,96009.44
2022-11-19T00:32:26.073Z,96007.94
2022-11-19T00:34:52.411Z,96009.28
2022-11-19T00:37:19.028Z,96016.38
2022-11-19T00:39:45.385Z,96012.81
2022-11-19T00:42:11.711Z,96021.03
2022-11-19T00:44:38.177Z,96026.06
2022-11-19T00:47:04.708Z,96020.91
2022-11-19T00:49:31.043Z,96023.38
2022-11-19T00:51:57.408Z,96012.03
2022-11-19T00:54:23.860Z,96021.06
2022-11-19T00:56:50.207Z,96025.41
2022-11-19T00:59:16.787Z,96020.66
2022-11-19T01:01:43.619Z,96018.59
2022-11-19T01:04:17.292Z,96014.75
2022-11-19T01:06:43.695Z,96020.91
2022-11-19T01:09:35.937Z,96018.72
2022-11-19T01:12:02.442Z,96020.91
2022-11-19T01:14:28.763Z,96024.59
2022-11-19T01:16:55.137Z,96026.38
2022-11-19T01:19:21.901Z,96024.03
2022-11-19T01:21:48.427Z,96030.16
2022-11-19T01:24:30.218Z,96029.06
2022-11-19T01:26:56.563Z,96036.44
2022-11-19T01:29:23.312Z,96031.41
2022-11-19T01:31:49.634Z,96034.13
2022-11-19T01:34:18.994Z,96033.72
2022-11-19T01:36:45.311Z,96033.72
2022-11-19T01:39:36.709Z,96038.06
2022-11-19T01:42:03.040Z,96029.34
2022-11-19T01:44:48.331Z,96029.34
2022-11-19T01:47:14.652Z,96031.41
2022-11-19T01:49:40.972Z,96034.78
2022-11-19T01:52:07.520Z,96035.38
2022-11-19T01:54:45.909Z,96032.78
2022-11-19T01:57:14.406Z,96033.31
2022-11-19T01:59:41.998Z,96037.66
2022-11-19T02:02:08.743Z,96042.56
2022-11-19T02:04:35.996Z,96043.25
2022-11-19T02:07:02.455Z,96048.41
2022-11-19T02:09:29.457Z,96050.03
2022-11-19T02:12:14.530Z,96050.63
2022-11-19T02:14:55.226Z,96046.78
2022-11-19T02:17:21.654Z,96040.50
2022-11-19T02:20:04.122Z,96048.28
2022-11-19T02:22:48.962Z,96051.69
2022-11-19T02:25:33.550Z,96054.94
2022-11-19T02:28:15.202Z,96055.28
2022-11-19T02:30:49.794Z,96056.03
2022-11-19T02:33:16.102Z,96053.31
2022-11-19T02:35:42.416Z,96059.44
2022-11-19T02:38:18.765Z,96062.28
2022-11-19T02:40:48.564Z,96059.53
2022-11-19T02:43:42.911Z,96068.34
2022-11-19T02:46:12.340Z,96068.75
2022-11-19T02:48:40.867Z,96078.97
2022-11-19T02:51:08.021Z,96087.34
2022-11-19T02:53:34.737Z,96083.06
2022-11-19T02:56:33.327Z,96089.56
2022-11-19T02:59:19.368Z,96085.84
2022-11-19T03:02:05.230Z,96088.38
2022-11-19T03:04:32.507Z,96093.31
2022-11-19T03:07:07.145Z,96087.22
2022-11-19T03:09:35.001Z,96082.22
2022-11-19T03:12:33.731Z,96085.94
2022-11-19T03:15:41.907Z,96077.31
2022-11-19T03:18:14.009Z,96092.59
2022-11-19T03:21:00.578Z,96105.44
2022-11-19T03:23:30.190Z,96113.81
2022-11-19T03:25:58.708Z,96122.84
2022-11-19T03:28:27.410Z,96126.72
2022-11-19T03:30:55.697Z,96126.31
2022-11-19T03:33:28.897Z,96131.31
2022-11-19T03:35:58.286Z,96136.41
2022-11-19T03:38:28.628Z,96133.16
2022-11-19T03:40:55.746Z,96127.66
2022-11-19T03:43:24.570Z,96123.44
2022-11-19T03:45:51.858Z,96128.94
2022-11-19T03:48:21.568Z,96134.41
2022-11-19T03:50:53.499Z,96143.16
2022-11-19T03:53:27.868Z,96150.50
2022-11-19T03:56:00.389Z,96152.63
2022-11-19T03:58:27.087Z,96148.34
2022-11-19T04:00:53.744Z,96151.88
2022-11-19T04:03:20.138Z,96150.63
2022-11-19T04:05:46.497Z,96155.50
2022-11-19T04:08:12.809Z,96150.59
2022-11-19T04:10:39.188Z,96151.50
2022-11-19T04:13:05.574Z,96147.31
2022-11-19T04:15:40.264Z,96146.94
2022-11-19T04:18:06.593Z,96147.81
2022-11-19T04:20:33.004Z,96142.47
2022-11-19T04:22:59.329Z,96137.56
2022-11-19T04:25:25.726Z,96145.03
2022-11-19T04:27:52.064Z,96140.94
2022-11-19T04:30:18.442Z,96157.91
2022-11-19T04:32:47.932Z,96173.00
2022-11-19T04:35:14.394Z,96182.47
2022-11-19T04:37:40.719Z,96176.03
2022-11-19T04:40:07.450Z,96188.00
2022-11-19T04:42:33.839Z,96192.50
2022-11-19T04:45:03.456Z,96176.47
2022-11-19T04:47:29.780Z,96178.31
2022-11-19T04:49:56.079Z,96181.28
2022-11-19T04:52:24.526Z,96178.34
2022-11-19T04:54:50.845Z,96169.75
2022-11-19T04:57:17.178Z,96170.56
2022-11-19T04:59:43.531Z,96171.94
2022-11-19T05:02:09.855Z,96170.94
2022-11-19T05:04:36.308Z,96173.91
2022-11-19T05:07:04.319Z,96171.88
2022-11-19T05:09:30.677Z,96182.38
2022-11-19T05:11:58.079Z,96174.31
2022-11-19T05:14:29.921Z,96187.16
2022-11-19T05:16:56.729Z,96182.22
2022-11-19T05:19:23.055Z,96188.63
2022-11-19T05:21:49.418Z,96185.59
2022-11-19T05:24:16.808Z,96187.88
2022-11-19T05:26:43.166Z,96178.00
2022-11-19T05:29:09.579Z,96192.06
2022-11-19T05:31:35.923Z,96193.28
2022-11-19T05:34:02.386Z,96200.84
2022-11-19T05:36:28.761Z,96193.78
2022-11-19T05:38:55.114Z,96188.72
2022-11-19T05:41:21.452Z,96192.25
2022-11-19T05:43:47.863Z,96191.03
2022-11-19T05:46:14.279Z,96189.22
2022-11-19T05:48:40.626Z,96184.41
2022-11-19T05:51:07.003Z,96187.66
2022-11-19T05:53:34.394Z,96199.28
2022-11-19T05:56:00.753Z,96203.19
2022-11-19T05:58:27.158Z,96204.03
2022-11-19T06:00:54.580Z,96209.00
2022-11-19T06:03:20.915Z,96218.09
2022-11-19T06:05:47.475Z,96222.06
2022-11-19T06:08:13.872Z,96226.19
2022-11-19T06:10:40.455Z,96216.59
2022-11-19T06:13:06.775Z,96237.19
2022-11-19T06:15:33.093Z,96231.81
2022-11-19T06:17:59.447Z,96237.47
2022-11-19T06:20:25.856Z,96240.84
2022-11-19T06:22:52.167Z,96235.22
2022-11-19T06:25:18.807Z,96234.63
2022-11-19T06:27:45.225Z,96228.06
2022-11-19T06:30:11.956Z,96230.63
2022-11-19T06:32:38.270Z,96228.06
2022-11-19T06:35:05.018Z,96233.94
2022-11-19T06:37:31.330Z,96229.00
2022-11-19T06:39:57.657Z,96233.94
2022-11-19T06:42:36.113Z,96240.50
2022-11-19T06:45:06.806Z,96235.94
2022-11-19T06:47:33.899Z,96237.09
2022-11-19T06:50:00.369Z,96240.25
2022-11-19T06:52:26.716Z,96246.38
2022-11-19T06:54:53.300Z,96240.25
2022-11-19T06:57:20.000Z,96241.44
2022-11-19T06:59:46.374Z,96237.66
2022-11-19T07:02:12.924Z,96244.72
2022-11-19T07:04:39.521Z,96257.16
2022-11-19T07:07:06.123Z,96266.75
2022-11-19T07:09:32.828Z,96256.91
2022-11-19T07:11:59.344Z,96251.38
2022-11-19T07:14:25.759Z,96260.44
2022-11-19T07:16:52.337Z,96254.78
2022-11-19T07:19:19.601Z,96257.97
2022-11-19T07:21:46.203Z,96256.69
2022-11-19T07:24:13.137Z,96253.16
2022-11-19T07:26:39.648Z,96268.41
2022-11-19T07:29:07.020Z,96274.38
2022-11-19T07:31:34.153Z,96284.13
2022-11-19T07:34:00.647Z,96293.97
2022-11-19T07:36:27.079Z,96295.25
2022-11-19T07:38:53.562Z,96298.91
2022-11-19T07:41:38.335Z,96314.84
2022-11-19T07:44:05.029Z,96319.19
2022-11-19T07:46:31.490Z,96316.03
2022-11-19T07:48:58.372Z,96308.50
2022-11-19T07:51:24.721Z,96300.19
2022-11-19T07:53:51.467Z,96297.97
2022-11-19T07:56:18.452Z,96307.00
2022-11-19T07:58:44.875Z,96305.50
2022-11-19T08:01:21.806Z,96295.63
2022-11-19T08:03:54.689Z,96294.81
2022-11-19T08:06:23.820Z,96301.94
2022-11-19T08:08:50.344Z,96300.09
2022-11-19T08:11:17.121Z,96296.09
2022-11-19T08:13:43.684Z,96291.50
2022-11-19T08:16:11.288Z,96298.41
2022-11-19T08:18:38.232Z,96296.97
2022-11-19T08:21:06.515Z,96289.72
2022-11-19T08:23:33.396Z,96303.69
2022-11-19T08:26:00.272Z,96301.84
2022-11-19T08:28:27.251Z,96299.59
2022-11-19T08:30:53.577Z,96307.00
2022-11-19T08:33:20.128Z,96301.38
2022-11-19T08:35:46.476Z,96308.19
2022-11-19T08:38:12.861Z,96299.13
2022-11-19T08:40:39.187Z,96313.00
2022-11-19T08:43:05.519Z,96311.09
2022-11-19T08:45:33.501Z,96305.81
2022-11-19T08:48:01.168Z,96301.91
2022-11-19T08:50:28.534Z,96308.59
2022-11-19T08:52:55.774Z,96309.22
2022-11-19T08:55:22.304Z,96309.94
2022-11-19T08:57:48.778Z,96318.84
2022-11-19T09:00:15.434Z,96319.44
2022-11-19T09:02:41.828Z,96331.28
2022-11-19T09:05:13.287Z,96332.94
2022-11-19T09:07:40.992Z,96326.13
2022-11-19T09:10:07.677Z,96323.09
2022-11-19T09:12:34.012Z,96317.22
2022-11-19T09:15:00.791Z,96316.97
2022-11-19T09:17:27.112Z,96320.38
2022-11-19T09:19:53.565Z,96323.28
2022-11-19T09:22:19.965Z,96332.34
2022-11-19T09:24:47.632Z,96329.53
2022-11-19T09:27:14.192Z,96329.41
2022-11-19T09:29:40.717Z,96318.63
2022-11-19T09:32:07.040Z,96333.63
2022-11-19T09:34:35.220Z,96335.03
2022-11-19T09:37:01.614Z,96338.22
2022-11-19T09:39:28.012Z,96340.78
2022-11-19T09:42:09.695Z,96338.81
2022-11-19T09:44:35.989Z,96335.75
2022-11-19T09:47:21.300Z,96345.16
2022-11-19T09:49:50.349Z,96340.19
2022-11-19T09:52:18.442Z,96338.78
2022-11-19T09:54:48.356Z,96339.16
2022-11-19T09:57:18.428Z,96339.97
2022-11-19T09:59:44.819Z,96336.09
2022-11-19T10:02:21.916Z,96337.75
2022-11-19T10:04:49.654Z,96342.31
2022-11-19T10:07:28.997Z,96345.13
2022-11-19T10:10:12.510Z,96338.56
2022-11-19T10:12:39.177Z,96329.75
2022-11-19T10:15:08.345Z,96335.50
2022-11-19T10:17:43.767Z,96342.06
2022-11-19T10:20:10.180Z,96332.91
2022-11-19T10:22:36.694Z,96337.63
2022-11-19T10:25:22.961Z,96328.81
2022-11-19T10:27:49.514Z,96330.22
2022-11-19T10:30:21.024Z,96319.06
2022-11-19T10:32:53.727Z,96329.03
2022-11-19T10:35:23.340Z,96329.63
2022-11-19T10:37:56.309Z,96326.47
2022-11-19T10:40:24.890Z,96319.78
2022-11-19T10:43:23.776Z,96328.69
2022-11-19T10:45:50.353Z,96315.25
2022-11-19T10:48:24.168Z,96323.72
2022-11-19T10:50:51.600Z,96319.72
2022-11-19T10:53:17.946Z,96314.25
2022-11-19T10:55:51.374Z,96311.75
2022-11-19T10:58:28.012Z,96312.88
2022-11-19T11:00:55.746Z,96307.09
2022-11-19T11:03:30.972Z,96312.03
2022-11-19T11:06:00.413Z,96305.28
2022-11-19T11:08:27.173Z,96303.38
2022-11-19T11:10:54.020Z,96297.38
2022-11-19T11:13:39.815Z,96292.91
2022-11-19T11:16:08.783Z,96301.06
2022-11-19T11:18:36.013Z,96294.84
2022-11-19T11:21:03.465Z,96289.47
2022-11-19T11:23:31.062Z,96294.38
2022-11-19T11:25:59.501Z,96293.66
2022-11-19T11:28:25.899Z,96288.38
2022-11-19T11:30:56.708Z,96297.00
2022-11-19T11:33:42.199Z,96303.16
2022-11-19T11:36:16.287Z,96300.94
2022-11-19T11:38:43.923Z,96292.91
2022-11-19T11:44:07.223Z,96306.41
2022-11-19T11:46:45.421Z,96305.47
2022-11-19T11:49:48.398Z,96300.72
2022-11-19T11:52:21.808Z,96286.97
2022-11-19T11:54:58.928Z,96293.06
2022-11-19T11:57:35.895Z,96288.09
2022-11-19T12:00:04.434Z,96290.75
2022-11-19T12:02:32.985Z,96293.03
2022-11-19T12:05:01.503Z,96300.63
2022-11-19T12:07:47.911Z,96295.47
2022-11-19T12:10:14.413Z,96301.28
2022-11-19T12:12:54.006Z,96293.63
2022-11-19T12:15:29.224Z,96294.94
2022-11-19T12:18:00.903Z,96293.84
2022-11-19T12:20:42.144Z,96293.56
2022-11-19T12:23:27.205Z,96288.66
2022-11-19T12:26:12.947Z,96282.53
2022-11-19T12:28:57.817Z,96280.84
2022-11-19T12:31:28.660Z,96276.75
2022-11-19T12:34:16.876Z,96277.53
2022-11-19T12:36:58.977Z,96285.78
2022-11-19T12:39:44.177Z,96286.50
2022-11-19T12:42:30.318Z,96276.31
2022-11-19T12:45:06.986Z,96279.88
2022-11-19T12:47:44.897Z,96286.72
2022-11-19T12:50:14.695Z,96285.22
2022-11-19T12:53:02.314Z,96286.06
2022-11-19T12:55:40.573Z,96280.47
2022-11-19T12:58:27.732Z,96276.75
2022-11-19T13:00:59.986Z,96286.38
2022-11-19T13:03:57.206Z,96286.19
2022-11-19T13:06:41.123Z,96274.78
2022-11-19T13:09:09.398Z,96278.94
2022-11-19T13:11:51.648Z,96278.66
2022-11-19T13:14:35.501Z,96281.44
2022-11-19T13:17:03.444Z,96281.25
2022-11-19T13:19:32.616Z,96280.69
2022-11-19T13:22:05.207Z,96284.41
2022-11-19T13:24:40.925Z,96281.31
2022-11-19T13:27:11.818Z,96269.78
2022-11-19T13:29:42.804Z,96274.38
2022-11-19T13:32:13.755Z,96267.47
2022-11-19T13:34:54.220Z,96258.59
2022-11-19T13:37:40.951Z,96270.47
2022-11-19T13:40:18.114Z,96275.44
2022-11-19T13:43:30.610Z,96274.13
2022-11-19T13:46:00.812Z,96281.44
2022-11-19T13:48:33.152Z,96280.75
2022-11-19T13:51:01.116Z,96280.03
2022-11-19T13:53:30.300Z,96278.13
2022-11-19T13:55:57.478Z,96268.34
2022-11-19T13:58:30.103Z,96282.69
2022-11-19T14:01:11.677Z,96269.63
2022-11-19T14:03:50.658Z,96269.06
2022-11-19T14:06:16.975Z,96254.47
2022-11-19T14:09:02.385Z,96263.19
2022-11-19T14:11:34.532Z,96271.09
2022-11-19T14:14:38.749Z,96267.53
2022-11-19T14:17:49.469Z,96262.13
2022-11-19T14:20:53.397Z,96270.59
2022-11-19T14:24:10.978Z,96268.91
2022-11-19T14:26:40.727Z,96275.25
2022-11-19T14:29:08.113Z,96282.13
2022-11-19T14:31:54.375Z,96275.38
2022-11-19T14:34:28.175Z,96276.09
2022-11-19T14:36:58.181Z,96279.41
2022-11-19T14:39:39.756Z,96288.56
2022-11-19T14:42:12.559Z,96277.94
2022-11-19T14:44:38.911Z,96282.22
2022-11-19T14:47:26.171Z,96285.03
2022-11-19T14:49:55.130Z,96274.69
2022-11-19T14:52:22.597Z,96275.03
2022-11-19T14:54:57.186Z,96283.09
2022-11-19T14:57:37.572Z,96278.94
2022-11-19T15:00:06.228Z,96273.28
2022-11-19T15:02:32.527Z,96284.34
2022-11-19T15:05:17.956Z,96282.59
2022-11-19T15:07:48.006Z,96269.03
2022-11-19T15:10:17.743Z,96266.91
2022-11-19T15:12:44.068Z,96270.66
2022-11-19T15:15:19.665Z,96275.09
2022-11-19T15:18:02.362Z,96274.19
2022-11-19T15:20:38.279Z,96270.47
2022-11-19T15:23:04.644Z,96277.28
2022-11-19T15:25:30.968Z,96285.28
2022-11-19T15:27:57.340Z,96278.44
2022-11-19T15:30:44.347Z,96277.50
2022-11-19T15:33:28.847Z,96278.22
2022-11-19T15:36:15.027Z,96274.44
2022-11-19T15:38:54.971Z,96279.28
2022-11-19T15:41:22.832Z,96288.16
2022-11-19T15:43:52.061Z,96279.25
2022-11-19T15:46:23.013Z,96271.72
2022-11-19T15:49:01.593Z,96269.25
2022-11-19T15:51:29.184Z,96286.66
2022-11-19T15:53:58.675Z,96286.88
2022-11-19T15:56:26.872Z,96281.28
2022-11-19T15:58:53.517Z,96288.66
2022-11-19T16:01:20.980Z,96292.31
2022-11-19T16:03:47.488Z,96290.44
2022-11-19T16:06:16.933Z,96288.75
2022-11-19T16:08:47.357Z,96287.84
2022-11-19T16:11:36.459Z,96286.41
2022-11-19T16:14:41.200Z,96286.47
2022-11-19T16:17:41.820Z,96290.56
2022-11-19T16:20:09.701Z,96300.88
2022-11-19T16:22:47.961Z,96304.53
2022-11-19T16:25:18.632Z,96298.53
2022-11-19T16:27:45.504Z,96295.03
2022-11-19T16:30:26.062Z,96301.47
2022-11-19T16:32:59.738Z,96304.75
2022-11-19T16:35:32.048Z,96309.66
2022-11-19T16:37:59.411Z,96310.38
2022-11-19T16:40:26.559Z,96313.53
2022-11-19T16:42:57.532Z,96313.44
2022-11-19T16:45:27.901Z,96302.63
2022-11-19T16:47:58.502Z,96306.97
2022-11-19T16:50:42.382Z,96303.44
2022-11-19T16:53:11.875Z,96300.41
2022-11-19T16:55:42.925Z,96315.19
2022-11-19T16:58:22.517Z,96329.19
2022-11-19T17:00:52.698Z,96335.75
2022-11-19T17:03:21.757Z,96339.59
2022-11-19T17:05:52.061Z,96336.81
2022-11-19T17:08:29.116Z,96322.47
2022-11-19T17:11:33.960Z,96324.00
2022-11-19T17:14:19.634Z,96320.69
2022-11-19T17:16:47.330Z,96322.59
2022-11-19T17:19:16.897Z,96325.06
2022-11-19T17:21:47.756Z,96329.63
2022-11-19T17:24:14.097Z,96335.94
2022-11-19T17:26:46.852Z,96343.00
2022-11-19T17:29:20.398Z,96348.88
2022-11-19T17:31:48.220Z,96360.75
2022-11-19T17:34:27.854Z,96357.81
2022-11-19T17:36:55.227Z,96364.38
2022-11-19T17:39:25.427Z,96370.13
2022-11-19T17:42:14.359Z,96359.91
2022-11-19T17:44:41.895Z,96360.16
2022-11-19T17:47:21.697Z,96361.22
2022-11-19T17:49:49.165Z,96357.81
2022-11-19T17:52:21.907Z,96364.25
2022-11-19T17:54:48.693Z,96356.16
2022-11-19T17:57:15.028Z,96355.47
2022-11-19T17:59:41.622Z,96345.81
2022-11-19T18:02:18.613Z,96349.69
2022-11-19T18:04:45.757Z,96351.69
2022-11-19T18:07:12.464Z,96350.06
2022-11-19T18:09:41.153Z,96339.25
2022-11-19T18:12:12.603Z,96336.31
2022-11-19T18:14:38.937Z,96339.25
2022-11-19T18:17:09.840Z,96348.19
2022-11-19T18:19:36.304Z,96333.78
2022-11-19T18:22:02.724Z,96330.00
2022-11-19T18:24:29.109Z,96331.28
2022-11-19T18:26:55.533Z,96345.50
2022-11-19T18:29:22.894Z,96365.19
2022-11-19T18:31:51.154Z,96369.06
2022-11-19T18:34:21.822Z,96361.22
2022-11-19T18:36:48.560Z,96361.09
2022-11-19T18:39:14.947Z,96364.25
2022-11-19T18:41:41.773Z,96370.59
2022-11-19T18:44:31.523Z,96358.03
2022-11-19T18:46:58.241Z,96353.34
2022-11-19T18:49:24.708Z,96361.44
2022-11-19T18:51:51.542Z,96367.19
2022-11-19T18:54:18.403Z,96372.59
2022-11-19T18:56:46.836Z,96378.22
2022-11-19T18:59:14.257Z,96366.97
2022-11-19T19:01:41.083Z,96378.13
2022-11-19T19:04:09.244Z,96381.50
2022-11-19T19:06:36.079Z,96384.78
2022-11-19T19:09:08.675Z,96392.19
2022-11-19T19:11:53.703Z,96393.28
2022-11-19T19:14:20.075Z,96394.66
2022-11-19T19:16:48.598Z,96390.63
2022-11-19T19:19:17.185Z,96381.63
2022-11-19T19:21:44.586Z,96378.81
2022-11-19T19:24:11.027Z,96381.63
2022-11-19T19:26:37.461Z,96376.66
2022-11-19T19:29:03.980Z,96378.81
2022-11-19T19:31:30.660Z,96381.75
2022-11-19T19:33:58.685Z,96385.72
2022-11-19T19:36:28.386Z,96391.13
2022-11-19T19:38:55.810Z,96397.94
2022-11-19T19:41:23.507Z,96388.19
2022-11-19T19:43:50.374Z,96382.81
2022-11-19T19:46:18.400Z,96386.34
2022-11-19T19:48:46.098Z,96387.72
2022-11-19T19:51:13.474Z,96389.00
2022-11-19T19:53:41.699Z,96391.00
2022-11-19T19:56:11.291Z,96400.03
2022-11-19T19:58:41.149Z,96400.88
2022-11-19T20:01:10.113Z,96395.22
2022-11-19T20:03:36.871Z,96385.06
2022-11-19T20:06:04.296Z,96375.28
2022-11-19T20:08:30.688Z,96380.34
2022-11-19T20:11:01.566Z,96378.56
2022-11-19T20:13:27.942Z,96379.03
2022-11-19T20:15:54.967Z,96372.81
2022-11-19T20:18:21.298Z,96370.72
2022-11-19T20:20:47.829Z,96384.44
2022-11-19T20:23:14.155Z,96378.69
2022-11-19T20:25:41.601Z,96378.13
2022-11-19T20:28:08.009Z,96381.63
2022-11-19T20:30:35.526Z,96377.16
2022-11-19T20:33:02.050Z,96371.28
2022-11-19T20:35:29.160Z,96382.22
2022-11-19T20:38:00.789Z,96378.66
2022-11-19T20:40:29.649Z,96376.56
2022-11-19T20:43:31.358Z,96382.19
2022-11-19T20:46:05.723Z,96379.63
2022-11-19T20:48:32.145Z,96377.75
2022-11-19T20:50:58.455Z,96379.63
2022-11-19T20:53:24.779Z,96372.84
2022-11-19T20:56:04.759Z,96363.91
2022-11-19T20:58:32.071Z,96369.19
2022-11-19T21:01:02.386Z,96365.53
2022-11-19T21:03:29.304Z,96369.53
2022-11-19T21:05:59.233Z,96376.59
2022-11-19T21:08:26.651Z,96385.75
2022-11-19T21:11:13.945Z,96378.09
2022-11-19T21:13:41.003Z,96370.84
2022-11-19T21:16:08.377Z,96369.78
2022-11-19T21:18:37.037Z,96386.44
2022-11-19T21:21:06.830Z,96376.38
2022-11-19T21:23:40.571Z,96366.47
2022-11-19T21:26:06.909Z,96373.06
2022-11-19T21:28:33.927Z,96383.75
2022-11-19T21:31:00.391Z,96369.44
2022-11-19T21:33:32.826Z,96371.78
2022-11-19T21:35:59.683Z,96365.06
2022-11-19T21:38:26.399Z,96361.47
2022-11-19T21:40:53.790Z,96355.00
2022-11-19T21:43:20.604Z,96358.97
2022-11-19T21:45:48.874Z,96365.06
2022-11-19T21:48:15.874Z,96371.19
2022-11-19T21:50:42.541Z,96371.78
2022-11-19T21:53:09.305Z,96376.94
2022-11-19T21:55:35.749Z,96373.31
2022-11-19T21:58:03.410Z,96371.19
2022-11-19T22:00:31.544Z,96367.09
2022-11-19T22:02:58.215Z,96371.41
2022-11-19T22:05:25.052Z,96364.38
2022-11-19T22:07:51.524Z,96363.19
2022-11-19T22:10:17.972Z,96358.50
2022-11-19T22:12:44.327Z,96357.34
2022-11-19T22:15:11.240Z,96363.22
2022-11-19T22:17:38.132Z,96356.88
2022-11-19T22:20:05.652Z,96360.16
2022-11-19T22:22:32.004Z,96339.47
2022-11-19T22:24:58.509Z,96345.94
2022-11-19T22:27:24.820Z,96362.28
2022-11-19T22:29:57.361Z,96357.34
2022-11-19T22:32:24.108Z,96355.69
2022-11-19T22:34:56.334Z,96362.16
2022-11-19T22:37:22.727Z,96365.91
2022-11-19T22:39:49.150Z,96352.75
2022-11-19T22:42:15.508Z,96356.88
2022-11-19T22:44:41.888Z,96367.78
2022-11-19T22:47:10.424Z,96362.75
2022-11-19T22:49:36.731Z,96351.72
2022-11-19T22:52:03.087Z,96354.63
2022-11-19T22:54:29.412Z,96355.09
2022-11-19T22:56:55.752Z,96357.22
2022-11-19T22:59:22.404Z,96359.78
2022-11-19T23:01:49.116Z,96362.84
2022-11-19T23:04:15.572Z,96355.94
2022-11-19T23:06:41.907Z,96355.94
2022-11-19T23:09:10.355Z,96363.69
2022-11-19T23:11:55.375Z,96354.53
2022-11-19T23:14:25.335Z,96355.25
2022-11-19T23:16:51.740Z,96357.09
2022-11-19T23:19:19.525Z,96354.41
2022-11-19T23:21:46.223Z,96361.47
2022-11-19T23:24:12.745Z,96356.16
2022-11-19T23:26:39.106Z,96355.44
2022-11-19T23:29:05.516Z,96355.69
2022-11-19T23:31:33.616Z,96350.75
2022-11-19T23:34:00.158Z,96362.84
2022-11-19T23:36:28.108Z,96359.19
2022-11-19T23:38:54.854Z,96357.09
2022-11-19T23:41:21.742Z,96351.59
2022-11-19T23:43:48.510Z,96349.69
2022-11-19T23:46:16.204Z,96352.41
2022-11-19T23:48:43.565Z,96353.59
2022-11-19T23:51:14.501Z,96349.22
2022-11-19T23:53:40.816Z,96347.13
2022-11-19T23:56:07.834Z,96358.63
2022-11-19T23:58:34.372Z,96337.81
